Time;durP1;ratioP1;P1;durP2;ratioP2;P2;SDS_P1;SDS_P2;PMS_P1;PMS_P2;Temp;Humidity;BMP_temperature;BMP_pressure;BME280_temperature;BME280_humidity;BME280_pressure;Samples;Min_cycle;Max_cycle;Signal;HPM_P1;HPM_P2
2022/02/04 00:24:07;;;;;;;8.38;5.50;;;4.20;99.90;;;;;;5083540;28;20034;-60
2022/02/04 00:26:57;;;;;;;7.43;4.82;;;4.20;99.90;;;;;;5090572;28;20043;-61
2022/02/04 00:30:08;;;;;;;6.60;4.45;;;4.20;99.90;;;;;;5089989;28;20039;-61
2022/02/04 00:32:55;;;;;;;8.10;5.65;;;4.10;99.90;;;;;;5097014;28;20413;-62
2022/02/04 00:38:34;;;;;;;6.45;4.28;;;4.10;99.90;;;;;;5087369;28;20043;-61
2022/02/04 00:41:22;;;;;;;8.27;4.80;;;4.10;99.90;;;;;;5090705;28;20030;-61
2022/02/04 00:44:15;;;;;;;6.90;4.18;;;4.20;99.90;;;;;;5090777;28;20145;-61
2022/02/04 00:47:12;;;;;;;6.82;4.80;;;4.20;99.90;;;;;;5096750;28;20039;-62
2022/02/04 00:52:47;;;;;;;8.68;5.32;;;4.20;99.90;;;;;;5087226;28;20047;-59
2022/02/04 00:55:44;;;;;;;7.10;4.82;;;4.20;99.90;;;;;;5088306;28;20038;-58
2022/02/04 01:25:56;;;;;;;5.53;3.70;;;4.20;99.90;;;;;;5089246;28;20070;-61
2022/02/04 01:28:43;;;;;;;6.05;3.90;;;4.20;99.90;;;;;;5091243;28;20051;-62
2022/02/04 01:31:27;;;;;;;6.00;4.18;;;4.30;99.90;;;;;;5094752;28;20042;-60
2022/02/04 01:34:11;;;;;;;6.90;4.22;;;4.30;99.90;;;;;;5087477;28;20043;-58
2022/02/04 01:36:55;;;;;;;6.55;4.32;;;4.20;99.90;;;;;;5089080;28;20331;-60
2022/02/04 01:39:39;;;;;;;6.35;4.30;;;4.20;99.90;;;;;;5088160;28;20138;-61
2022/02/04 01:42:24;;;;;;;6.25;4.18;;;4.20;99.90;;;;;;5094187;28;20039;-61
2022/02/04 01:45:08;;;;;;;6.75;4.82;;;4.20;99.90;;;;;;5087233;28;20387;-61
2022/02/04 01:47:55;;;;;;;7.38;4.45;;;4.20;99.90;;;;;;5091019;28;20043;-57
2022/02/04 01:50:39;;;;;;;5.55;3.88;;;4.20;99.90;;;;;;5090483;28;20047;-62
2022/02/04 01:53:28;;;;;;;5.90;3.88;;;4.20;99.90;;;;;;5085644;28;20702;-60
2022/02/04 01:56:13;;;;;;;6.10;4.25;;;4.20;99.90;;;;;;5093117;28;20030;-61
2022/02/04 01:58:57;;;;;;;5.32;3.85;;;4.20;99.90;;;;;;5090249;28;20046;-60
2022/02/04 02:01:41;;;;;;;7.65;4.82;;;4.20;99.90;;;;;;5094539;28;20034;-61
2022/02/04 02:04:25;;;;;;;6.05;4.18;;;4.20;99.90;;;;;;5074368;28;20078;-60
2022/02/04 02:07:15;;;;;;;7.50;4.30;;;4.20;99.90;;;;;;5087947;28;20070;-61
2022/02/04 02:10:05;;;;;;;8.10;4.43;;;4.30;99.90;;;;;;5078624;28;20594;-61
2022/02/04 02:13:19;;;;;;;5.93;4.13;;;4.30;99.90;;;;;;5094486;28;20039;-61
2022/02/04 02:16:56;;;;;;;6.55;4.32;;;4.30;99.90;;;;;;5084291;28;20070;-62
2022/02/04 02:44:18;;;;;;;6.38;4.88;;;4.20;99.90;;;;;;5089363;28;20038;-62
2022/02/04 02:50:04;;;;;;;8.30;5.63;;;4.30;99.90;;;;;;5087437;28;20043;-62
2022/02/04 02:59:37;;;;;;;10.18;6.50;;;4.30;99.90;;;;;;5086781;28;20084;-61
2022/02/04 03:01:57;;;;;;;9.85;6.75;;;4.30;99.90;;;;;;5092441;28;20090;-59
2022/02/04 03:04:41;;;;;;;10.15;6.05;;;4.30;99.90;;;;;;5086734;28;20423;-60
2022/02/04 03:07:25;;;;;;;11.20;5.97;;;4.20;99.90;;;;;;5096772;28;20089;-59
2022/02/04 03:10:09;;;;;;;8.43;5.22;;;4.20;99.90;;;;;;5087497;28;20076;-61
2022/02/04 03:12:53;;;;;;;8.65;5.68;;;4.30;99.90;;;;;;5083518;28;20055;-61
2022/02/04 03:15:38;;;;;;;9.32;5.78;;;4.30;99.90;;;;;;5087022;28;20096;-58
2022/02/04 03:18:24;;;;;;;8.88;5.55;;;4.30;99.90;;;;;;5087959;28;20035;-59
2022/02/04 03:21:22;;;;;;;6.95;5.10;;;4.30;99.90;;;;;;5090791;28;20034;-61
2022/02/04 03:24:12;;;;;;;8.27;5.82;;;4.30;99.90;;;;;;5088097;28;20043;-62
2022/02/04 03:27:00;;;;;;;7.97;5.75;;;4.20;99.90;;;;;;5093036;28;20088;-61
2022/02/04 03:30:01;;;;;;;11.50;6.00;;;4.20;99.90;;;;;;5086536;28;20037;-61
2022/02/04 03:32:53;;;;;;;11.07;6.68;;;4.30;99.90;;;;;;5091926;28;20695;-60
2022/02/04 03:35:38;;;;;;;11.05;6.22;;;4.30;99.90;;;;;;5088617;28;20120;-61
2022/02/04 03:38:22;;;;;;;9.27;6.13;;;4.30;99.90;;;;;;5087787;28;20659;-61
2022/02/04 03:41:11;;;;;;;11.25;7.13;;;4.30;99.90;;;;;;5084561;28;20483;-61
2022/02/04 03:43:55;;;;;;;9.02;6.30;;;4.30;99.90;;;;;;5084983;28;20205;-60
2022/02/04 03:46:39;;;;;;;11.63;6.93;;;4.20;99.90;;;;;;5093238;28;20066;-60
2022/02/04 03:49:23;;;;;;;12.15;7.10;;;4.20;99.90;;;;;;5086335;28;20070;-59
2022/02/04 03:52:08;;;;;;;11.60;7.20;;;4.20;99.90;;;;;;5097593;28;20035;-61
2022/02/04 03:54:52;;;;;;;11.18;7.18;;;4.20;99.90;;;;;;5089317;28;20059;-62
2022/02/04 03:57:36;;;;;;;12.77;7.15;;;4.30;99.90;;;;;;5093845;28;20412;-61
2022/02/04 04:00:21;;;;;;;9.55;6.85;;;4.30;99.90;;;;;;5092740;28;20152;-59
2022/02/04 04:03:05;;;;;;;14.40;8.02;;;4.30;99.90;;;;;;5094770;28;20031;-61
2022/02/04 04:05:51;;;;;;;12.32;7.65;;;4.30;99.90;;;;;;5082534;28;20493;-59
2022/02/04 04:08:35;;;;;;;12.02;7.68;;;4.30;99.90;;;;;;5094556;28;20063;-57
2022/02/04 04:11:19;;;;;;;13.60;8.18;;;4.40;99.90;;;;;;5093470;28;20031;-61
2022/02/04 04:14:04;;;;;;;11.10;7.40;;;4.40;99.90;;;;;;5092320;28;20039;-61
2022/02/04 04:16:48;;;;;;;14.45;7.75;;;4.30;99.90;;;;;;5097545;28;20039;-60
2022/02/04 04:19:32;;;;;;;13.05;7.80;;;4.30;99.90;;;;;;5088900;28;21150;-61
2022/02/04 04:22:16;;;;;;;13.90;8.90;;;4.30;99.90;;;;;;5095080;28;20088;-61
2022/02/04 04:25:00;;;;;;;16.50;8.85;;;4.30;99.90;;;;;;5088197;28;20737;-60
2022/02/04 04:27:45;;;;;;;13.75;8.43;;;4.40;99.90;;;;;;5093781;28;20077;-60
2022/02/04 04:30:29;;;;;;;12.25;8.30;;;4.30;99.90;;;;;;5091973;28;20038;-61
2022/02/04 04:33:14;;;;;;;12.98;8.27;;;4.30;99.90;;;;;;5089640;28;20048;-60
2022/02/04 04:35:58;;;;;;;15.68;9.40;;;4.30;99.90;;;;;;5087232;28;20043;-59
2022/02/04 04:38:48;;;;;;;15.35;9.55;;;4.30;99.90;;;;;;5090115;28;20501;-60
2022/02/04 04:41:54;;;;;;;13.77;8.55;;;4.30;99.90;;;;;;5096128;28;20085;-57
2022/02/04 04:45:03;;;;;;;10.90;7.07;;;4.20;99.90;;;;;;5082823;28;20454;-59
2022/02/04 05:30:26;;;;;;;10.35;5.32;;;4.20;99.90;;;;;;5069801;28;20040;-59
2022/02/04 05:33:10;;;;;;;7.00;5.20;;;4.20;99.90;;;;;;5063452;28;20524;-61
2022/02/04 05:35:55;;;;;;;8.50;5.60;;;4.30;99.90;;;;;;5061424;28;20197;-60
2022/02/04 05:38:40;;;;;;;8.35;5.40;;;4.20;99.90;;;;;;5073983;28;20032;-60
2022/02/04 05:41:30;;;;;;;7.78;5.35;;;4.30;99.90;;;;;;5072605;28;20052;-60
2022/02/04 05:44:15;;;;;;;9.77;6.35;;;4.30;99.90;;;;;;5064056;28;20112;-57
2022/02/04 05:47:07;;;;;;;9.80;6.13;;;4.30;99.90;;;;;;5070141;28;20097;-60
2022/02/04 05:53:14;;;;;;;9.00;6.67;;;4.30;99.90;;;;;;5065368;28;20032;-60
2022/02/04 05:56:12;;;;;;;10.68;6.70;;;4.30;99.90;;;;;;5069213;28;20043;-60
2022/02/04 05:59:08;;;;;;;12.60;7.38;;;4.30;99.90;;;;;;5060912;28;20506;-59
2022/02/04 06:08:18;;;;;;;9.15;6.60;;;4.30;99.90;;;;;;5074712;28;20556;-60
2022/02/04 06:11:15;;;;;;;11.18;6.22;;;4.30;99.90;;;;;;5062807;28;20129;-60
2022/02/04 06:22:59;;;;;;;12.30;6.50;;;4.30;99.90;;;;;;5070876;28;20402;-62
2022/02/04 06:25:43;;;;;;;8.50;6.50;;;4.30;99.90;;;;;;5068612;28;20035;-61
2022/02/04 06:28:28;;;;;;;10.07;6.15;;;4.30;99.90;;;;;;5069322;28;20094;-59
2022/02/04 06:31:12;;;;;;;8.98;6.72;;;4.30;99.90;;;;;;5068800;28;20034;-60
2022/02/04 06:33:57;;;;;;;8.90;6.03;;;4.40;99.90;;;;;;5068446;28;20534;-60
2022/02/04 06:36:41;;;;;;;9.23;5.80;;;4.30;99.90;;;;;;5068303;28;20035;-60
2022/02/04 06:39:25;;;;;;;9.55;5.68;;;4.30;99.90;;;;;;5064015;28;20093;-62
2022/02/04 06:42:10;;;;;;;9.63;5.32;;;4.30;99.90;;;;;;5073409;28;20544;-61
2022/02/04 06:44:54;;;;;;;8.07;5.80;;;4.40;99.90;;;;;;5066846;28;20035;-60
2022/02/04 06:47:39;;;;;;;8.55;5.43;;;4.40;99.90;;;;;;5066612;28;20035;-60
2022/02/04 06:50:23;;;;;;;6.97;4.70;;;4.30;99.90;;;;;;5069011;28;20125;-60
2022/02/04 06:53:08;;;;;;;7.40;5.13;;;4.40;99.90;;;;;;5071145;28;20100;-59
2022/02/04 06:55:52;;;;;;;9.02;5.10;;;4.40;99.90;;;;;;5067767;28;20081;-59
2022/02/04 06:58:36;;;;;;;7.18;4.65;;;4.40;99.90;;;;;;5072370;28;20054;-61
2022/02/04 07:01:20;;;;;;;7.68;4.65;;;4.40;99.90;;;;;;5069413;28;20153;-60
2022/02/04 07:04:06;;;;;;;13.30;5.82;;;4.50;99.90;;;;;;5068076;28;20123;-60
2022/02/04 07:06:55;;;;;;;8.60;5.15;;;4.40;99.90;;;;;;5070256;28;20036;-60
2022/02/04 07:12:36;;;;;;;7.70;5.05;;;4.40;99.90;;;;;;5064578;28;20701;-61
2022/02/04 07:15:44;;;;;;;6.97;4.85;;;4.40;99.90;;;;;;5066605;28;20035;-59
2022/02/04 07:21:27;;;;;;;10.60;4.75;;;4.30;99.90;;;;;;5070260;28;20074;-60
2022/02/04 07:24:11;;;;;;;9.02;4.70;;;4.40;99.90;;;;;;5075327;28;20098;-61
2022/02/04 07:26:56;;;;;;;7.85;5.28;;;4.30;99.90;;;;;;5068752;28;20081;-63
2022/02/04 07:29:42;;;;;;;10.68;5.15;;;4.30;99.90;;;;;;5070441;28;20458;-60
2022/02/04 07:32:42;;;;;;;8.05;4.63;;;4.30;99.90;;;;;;5079170;28;20093;-59
2022/02/04 07:41:20;;;;;;;9.03;4.53;;;4.30;99.90;;;;;;5072713;28;20051;-60
2022/02/04 07:44:04;;;;;;;7.72;4.28;;;4.30;99.90;;;;;;5072708;28;20039;-60
2022/02/04 07:46:48;;;;;;;5.70;3.65;;;4.30;99.90;;;;;;5074269;28;20629;-60
2022/02/04 07:49:32;;;;;;;6.18;3.58;;;4.30;99.90;;;;;;5070032;28;20042;-63
2022/02/04 07:52:16;;;;;;;4.13;3.33;;;4.30;99.90;;;;;;5076109;28;20040;-60
2022/02/04 07:55:02;;;;;;;3.92;3.08;;;4.40;99.90;;;;;;5064768;28;21015;-59
2022/02/04 07:57:47;;;;;;;4.57;3.33;;;4.40;99.90;;;;;;5076045;28;20546;-61
2022/02/04 08:00:31;;;;;;;4.25;3.05;;;4.40;99.90;;;;;;5071718;28;20040;-61
2022/02/04 08:03:30;;;;;;;6.00;3.72;;;4.50;99.90;;;;;;5066375;28;20047;-61
2022/02/04 08:06:21;;;;;;;4.28;3.38;;;4.50;99.90;;;;;;5070758;28;20047;-61
2022/02/04 08:09:18;;;;;;;5.40;3.42;;;4.50;99.90;;;;;;5072674;28;20032;-61
2022/02/04 08:12:25;;;;;;;4.75;3.55;;;4.50;99.90;;;;;;5076621;28;20067;-61
2022/02/04 08:15:37;;;;;;;5.55;3.90;;;4.50;99.90;;;;;;5064186;28;20075;-57
2022/02/04 08:18:33;;;;;;;5.15;3.40;;;4.50;99.90;;;;;;5070060;28;20092;-59
2022/02/04 08:33:04;;;;;;;6.70;3.10;;;4.60;99.90;;;;;;5061739;28;20032;-59
2022/02/04 08:53:59;;;;;;;3.33;2.00;;;4.70;99.90;;;;;;5067453;28;20030;-60
2022/02/04 08:56:59;;;;;;;3.65;2.00;;;4.70;99.90;;;;;;5074522;28;20044;-60
2022/02/04 09:00:10;;;;;;;1.90;1.65;;;4.70;99.90;;;;;;5068471;28;20536;-60
2022/02/04 09:03:02;;;;;;;1.90;1.25;;;4.80;99.90;;;;;;5070348;28;20821;-61
2022/02/04 09:05:54;;;;;;;2.13;1.63;;;4.80;99.90;;;;;;5050926;28;20029;-60
2022/02/04 09:08:47;;;;;;;1.90;1.50;;;4.80;99.90;;;;;;5056355;28;20560;-60
2022/02/04 09:20:27;;;;;;;1.92;1.15;;;4.90;99.90;;;;;;5097380;27;20031;-60
2022/02/04 09:23:14;;;;;;;2.17;0.90;;;4.90;99.90;;;;;;5092328;28;20712;-59
2022/02/04 09:26:05;;;;;;;1.13;1.00;;;4.90;99.90;;;;;;5100633;27;20035;-58
2022/02/04 09:28:51;;;;;;;1.42;1.00;;;5.00;99.90;;;;;;5097151;27;20074;-59
2022/02/04 09:31:38;;;;;;;1.20;0.90;;;5.00;99.90;;;;;;5106325;27;20631;-60
2022/02/04 09:34:24;;;;;;;1.52;1.00;;;5.00;99.90;;;;;;5092295;28;20028;-61
2022/02/04 09:37:10;;;;;;;1.37;0.77;;;5.00;99.90;;;;;;5093288;27;20049;-59
2022/02/04 09:39:56;;;;;;;0.70;0.70;;;5.10;99.90;;;;;;5095805;27;20023;-59
2022/02/04 09:42:44;;;;;;;2.22;0.52;;;5.10;99.90;;;;;;5100566;27;20134;-60
2022/02/04 09:45:33;;;;;;;1.40;0.70;;;5.20;99.90;;;;;;5110181;27;20040;-60
2022/02/04 09:48:19;;;;;;;0.70;0.50;;;5.20;99.90;;;;;;5094586;27;20537;-60
2022/02/04 09:51:05;;;;;;;1.33;0.70;;;5.20;99.90;;;;;;5103249;27;20035;-60
2022/02/04 10:12:35;;;;;;;0.60;0.38;;;5.60;99.90;;;;;;5104287;27;20027;-61
2022/02/04 10:18:27;;;;;;;1.35;0.50;;;5.70;99.90;;;;;;5092345;28;20034;-58
2022/02/04 10:21:13;;;;;;;1.05;0.55;;;5.60;99.90;;;;;;5092465;27;20036;-59
2022/02/04 10:23:59;;;;;;;0.40;0.40;;;5.60;99.90;;;;;;5083102;28;20070;-59
2022/02/04 10:26:46;;;;;;;0.53;0.30;;;5.60;99.90;;;;;;5097555;27;20039;-60
2022/02/04 10:29:32;;;;;;;2.15;0.50;;;5.60;99.90;;;;;;5079033;28;20229;-60
2022/02/04 10:32:43;;;;;;;0.55;0.47;;;5.50;99.90;;;;;;5101470;27;20675;-60
2022/02/04 10:35:36;;;;;;;1.25;0.57;;;5.50;99.90;;;;;;5090796;27;20032;-60
2022/02/04 10:38:37;;;;;;;1.10;0.73;;;5.60;99.90;;;;;;5080685;28;20027;-60
2022/02/04 10:41:30;;;;;;;0.98;0.50;;;5.60;99.90;;;;;;5099325;27;20055;-60
2022/02/04 10:44:28;;;;;;;0.65;0.47;;;5.70;99.90;;;;;;5090142;28;20093;-60
2022/02/04 10:47:30;;;;;;;0.50;0.40;;;5.70;99.90;;;;;;5108789;27;20023;-61
2022/02/04 11:10:55;;;;;;;1.45;0.80;;;5.50;99.90;;;;;;5115386;28;20546;-59
2022/02/04 11:47:57;;;;;;;1.90;1.30;;;5.80;99.90;;;;;;5102616;28;20043;-63
2022/02/04 11:48:16;;;;;;;1.48;1.00;;;5.90;99.90;;;;;;5111238;28;20062;-60
2022/02/04 11:57:18;;;;;;;1.40;1.00;;;5.90;99.90;;;;;;5113331;28;20053;-60
2022/02/04 12:00:18;;;;;;;2.80;1.00;;;5.90;99.90;;;;;;5102553;28;21020;-59
2022/02/04 12:03:24;;;;;;;1.65;1.17;;;5.90;99.90;;;;;;5106612;28;20068;-60
2022/02/04 12:06:08;;;;;;;5.47;1.65;;;5.90;99.90;;;;;;5106276;28;20462;-60
2022/02/04 12:08:52;;;;;;;2.17;1.40;;;5.90;99.90;;;;;;5104587;28;20088;-60
2022/02/04 12:11:40;;;;;;;5.25;1.48;;;5.90;99.90;;;;;;5115174;28;20168;-59
2022/02/04 12:14:32;;;;;;;2.10;1.40;;;6.00;99.90;;;;;;5109948;28;20026;-60
2022/02/04 12:17:19;;;;;;;2.10;1.38;;;6.00;99.90;;;;;;5116024;27;20559;-59
2022/02/04 12:20:04;;;;;;;2.13;1.30;;;5.90;99.90;;;;;;5106683;27;20406;-60
2022/02/04 12:22:50;;;;;;;2.42;1.40;;;5.90;99.90;;;;;;5113751;27;20124;-61
2022/02/04 12:25:57;;;;;;;1.92;1.17;;;5.80;99.90;;;;;;5116456;27;20088;-61
2022/02/04 12:29:05;;;;;;;1.63;1.00;;;5.80;99.90;;;;;;5116026;27;20065;-60
2022/02/04 12:31:50;;;;;;;;;;;5.80;99.90;;;;;;5117225;27;20050;-60
2022/02/04 12:34:35;;;;;;;1.77;1.33;;;5.70;99.90;;;;;;5111664;27;20363;-60
2022/02/04 12:37:20;;;;;;;1.58;0.93;;;5.70;99.90;;;;;;5121250;27;20038;-61
2022/02/04 12:40:08;;;;;;;2.05;0.98;;;5.70;99.90;;;;;;5105896;27;20046;-61
2022/02/04 12:42:52;;;;;;;1.00;0.80;;;5.70;99.90;;;;;;5116691;27;20050;-62
2022/02/04 12:45:38;;;;;;;1.23;0.68;;;5.70;99.90;;;;;;5096891;27;20042;-61
2022/02/04 12:48:22;;;;;;;1.48;0.80;;;5.50;99.90;;;;;;5110529;28;20060;-60
2022/02/04 12:51:08;;;;;;;2.90;0.68;;;5.50;99.90;;;;;;5114275;27;20066;-60
2022/02/04 12:53:52;;;;;;;1.25;0.70;;;5.50;99.90;;;;;;5110540;27;20050;-61
2022/02/04 12:56:40;;;;;;;0.98;0.50;;;5.50;99.90;;;;;;5114732;27;20065;-59
2022/02/04 13:03:02;;;;;;;2.97;0.80;;;5.40;99.90;;;;;;5087785;27;20038;-61
2022/02/04 13:09:32;;;;;;;3.42;1.48;;;5.40;99.90;;;;;;5109738;27;20472;-61
2022/02/04 13:12:06;;;;;;;4.22;1.35;;;5.40;99.90;;;;;;5114621;27;20169;-58
2022/02/04 13:14:51;;;;;;;1.55;0.88;;;5.30;99.90;;;;;;5124067;27;20486;-60
2022/02/04 13:17:36;;;;;;;3.53;1.67;;;5.30;99.90;;;;;;5117076;27;20046;-60
2022/02/04 13:20:21;;;;;;;3.08;0.70;;;5.30;99.90;;;;;;5112046;27;20104;-61
2022/02/04 13:23:16;;;;;;;4.60;2.05;;;5.20;99.90;;;;;;5114513;27;20061;-60
2022/02/04 13:26:03;;;;;;;1.92;1.00;;;5.20;99.90;;;;;;5104541;27;20505;-59
2022/02/04 13:28:47;;;;;;;1.60;0.85;;;5.30;99.90;;;;;;5093413;28;20046;-59
2022/02/04 13:31:36;;;;;;;1.50;0.90;;;5.30;99.90;;;;;;5118373;27;20038;-60
2022/02/04 13:34:26;;;;;;;1.27;0.65;;;5.50;99.90;;;;;;5096168;28;20106;-61
2022/02/04 13:37:37;;;;;;;1.25;0.70;;;5.60;99.90;;;;;;5107245;27;20089;-60
2022/02/04 13:40:32;;;;;;;0.70;0.50;;;5.70;99.90;;;;;;5123544;27;20038;-61
2022/02/04 13:43:20;;;;;;;1.17;0.80;;;5.70;99.90;;;;;;5105096;28;20070;-59
2022/02/04 13:46:32;;;;;;;1.55;0.93;;;5.80;99.90;;;;;;5099934;27;20131;-60
2022/02/04 13:58:47;;;;;;;0.73;0.50;;;5.50;99.90;;;;;;5112641;27;20038;-60
2022/02/04 14:01:35;;;;;;;1.38;0.70;;;5.50;99.90;;;;;;5116261;27;20046;-61
2022/02/04 14:04:20;;;;;;;1.00;0.68;;;5.40;99.90;;;;;;5097229;28;20035;-60
2022/02/04 14:07:09;;;;;;;1.23;0.47;;;5.50;99.90;;;;;;5101363;27;20065;-60
2022/02/04 14:10:05;;;;;;;2.95;0.43;;;5.50;99.90;;;;;;5102193;27;20156;-61
2022/02/04 14:13:00;;;;;;;1.25;0.60;;;5.50;99.90;;;;;;5115524;27;20073;-61
2022/02/04 14:15:50;;;;;;;1.13;0.77;;;5.50;99.90;;;;;;5100477;27;20547;-61
2022/02/04 14:18:36;;;;;;;0.70;0.50;;;5.40;99.90;;;;;;5099089;28;20054;-60
2022/02/04 14:21:21;;;;;;;0.75;0.57;;;5.40;99.90;;;;;;5115337;27;20536;-61
2022/02/04 14:24:09;;;;;;;3.13;0.52;;;5.30;99.90;;;;;;5107866;28;20036;-61
2022/02/04 14:26:55;;;;;;;0.90;0.50;;;5.30;99.90;;;;;;5107827;27;20430;-59
2022/02/04 14:29:58;;;;;;;1.90;0.70;;;5.20;99.90;;;;;;5111990;27;21647;-61
2022/02/04 14:33:08;;;;;;;0.95;0.57;;;5.10;99.90;;;;;;5117568;27;20188;-61
2022/02/04 14:36:06;;;;;;;0.95;0.50;;;5.20;99.90;;;;;;5100162;27;20031;-61
2022/02/04 14:54:13;;;;;;;1.38;0.77;;;5.10;99.90;;;;;;5106250;28;20111;-60
2022/02/04 15:06:13;;;;;;;2.00;0.95;;;5.10;99.90;;;;;;5101250;27;20049;-61
2022/02/04 15:08:58;;;;;;;2.03;1.40;;;5.00;99.90;;;;;;5115856;28;20088;-61
2022/02/04 15:11:43;;;;;;;2.20;1.10;;;4.90;99.90;;;;;;5114208;28;20046;-61
2022/02/04 15:14:28;;;;;;;2.60;1.23;;;4.80;99.90;;;;;;5107482;28;20532;-61
2022/02/04 15:17:12;;;;;;;2.95;1.27;;;4.80;99.90;;;;;;5118541;28;20096;-59
2022/02/04 15:19:56;;;;;;;3.50;1.80;;;4.80;99.90;;;;;;5102093;28;20038;-60
2022/02/04 15:22:40;;;;;;;5.03;1.48;;;4.80;99.90;;;;;;5112354;28;20038;-61
2022/02/04 15:25:24;;;;;;;2.95;1.25;;;4.70;99.90;;;;;;5105431;28;20057;-60
2022/02/04 15:28:29;;;;;;;5.07;1.60;;;4.80;99.90;;;;;;5117466;28;20039;-61
2022/02/04 15:34:14;;;;;;;3.05;1.50;;;4.70;99.90;;;;;;5106727;28;20035;-61
2022/02/04 15:36:59;;;;;;;5.30;1.67;;;4.70;99.90;;;;;;5114389;28;20108;-60
2022/02/04 15:39:43;;;;;;;4.30;2.17;;;4.80;99.90;;;;;;5108641;28;20046;-59
2022/02/04 15:42:33;;;;;;;3.88;1.63;;;4.80;99.90;;;;;;5109210;28;20709;-61
2022/02/04 15:51:33;;;;;;;6.78;1.85;;;4.80;99.90;;;;;;5116491;27;20038;-61
2022/02/04 15:54:26;;;;;;;5.30;2.00;;;4.80;99.90;;;;;;5094166;28;20498;-61
2022/02/04 16:00:38;;;;;;;8.85;2.10;;;4.70;99.90;;;;;;5108551;27;20569;-61
2022/02/04 16:03:39;;;;;;;5.72;1.83;;;4.70;99.90;;;;;;5112349;27;20552;-60
2022/02/04 16:06:24;;;;;;;10.52;2.03;;;4.70;99.90;;;;;;5117141;27;20038;-60
2022/02/04 16:09:09;;;;;;;8.15;1.50;;;4.80;99.90;;;;;;5111616;28;20421;-60
2022/02/04 16:14:52;;;;;;;4.60;1.50;;;4.70;99.90;;;;;;5107068;28;20478;-60
2022/02/04 16:17:40;;;;;;;5.57;1.50;;;4.70;99.90;;;;;;5115891;27;20050;-61
2022/02/04 16:20:51;;;;;;;5.40;1.65;;;4.70;99.90;;;;;;5110879;27;20547;-61
2022/02/04 16:23:45;;;;;;;4.00;1.33;;;4.70;99.90;;;;;;5107930;28;20038;-61
2022/02/04 16:29:15;;;;;;;8.85;1.65;;;4.70;99.90;;;;;;5114521;27;20038;-60
2022/02/04 16:31:59;;;;;;;2.92;1.13;;;4.70;99.90;;;;;;5116169;27;20081;-60
2022/02/04 16:34:50;;;;;;;10.23;1.20;;;4.70;99.90;;;;;;5108097;28;20038;-59
2022/02/04 16:37:37;;;;;;;6.07;1.38;;;4.70;99.90;;;;;;5118385;27;20509;-60
2022/02/04 16:40:21;;;;;;;4.70;1.30;;;4.70;99.90;;;;;;5112588;27;20068;-60
2022/02/04 16:43:07;;;;;;;5.32;1.05;;;4.60;99.90;;;;;;5111174;27;20046;-61
2022/02/04 16:45:53;;;;;;;4.32;1.10;;;4.60;99.90;;;;;;5105761;27;20497;-59
2022/02/04 16:48:37;;;;;;;5.40;0.88;;;4.60;99.90;;;;;;5115599;27;20084;-59
2022/02/04 16:51:21;;;;;;;4.70;0.88;;;4.50;99.90;;;;;;5107483;27;20548;-61
2022/02/04 16:54:06;;;;;;;5.63;0.98;;;4.50;99.90;;;;;;5112970;27;20085;-62
2022/02/04 16:56:52;;;;;;;4.32;0.73;;;4.50;99.90;;;;;;5112331;27;20031;-60
2022/02/04 16:59:36;;;;;;;4.47;0.90;;;4.50;99.90;;;;;;5109881;27;20078;-60
2022/02/04 17:02:21;;;;;;;2.17;0.65;;;4.50;99.90;;;;;;5115115;27;20153;-60
2022/02/04 17:05:05;;;;;;;1.40;0.82;;;4.50;99.90;;;;;;5107018;27;20042;-59
2022/02/04 17:07:55;;;;;;;1.85;0.55;;;4.50;99.90;;;;;;5113411;27;20066;-60
2022/02/04 17:10:43;;;;;;;2.78;0.77;;;4.50;99.90;;;;;;5111190;27;20146;-60
2022/02/04 17:13:29;;;;;;;0.93;0.43;;;4.50;99.90;;;;;;5108448;28;20039;-60
2022/02/04 17:16:16;;;;;;;1.48;0.50;;;4.50;99.90;;;;;;5116660;27;20103;-60
2022/02/04 17:19:00;;;;;;;2.33;1.15;;;4.60;99.90;;;;;;5112988;27;20076;-60
2022/02/04 17:21:45;;;;;;;3.40;0.60;;;4.60;99.90;;;;;;5113849;27;20035;-59
2022/02/04 17:24:31;;;;;;;1.50;0.70;;;4.60;99.90;;;;;;5104529;28;20042;-60
2022/02/04 17:27:15;;;;;;;1.50;0.50;;;4.60;99.90;;;;;;5121661;27;20030;-60
2022/02/04 17:29:59;;;;;;;1.17;0.60;;;4.60;99.90;;;;;;5079703;28;20113;-58
2022/02/04 17:32:45;;;;;;;0.90;0.57;;;4.50;99.90;;;;;;5119214;27;20410;-60
2022/02/04 17:35:29;;;;;;;1.05;0.70;;;4.50;99.90;;;;;;5108328;27;20058;-60
2022/02/04 17:38:13;;;;;;;0.38;0.38;;;4.50;99.90;;;;;;5107873;27;20461;-59
2022/02/04 17:40:58;;;;;;;2.83;0.65;;;4.40;99.90;;;;;;5103981;27;20057;-59
2022/02/04 17:43:47;;;;;;;0.40;0.40;;;4.40;99.90;;;;;;5106151;27;20038;-61
2022/02/04 17:46:31;;;;;;;1.75;0.38;;;4.40;99.90;;;;;;5115350;27;20479;-60
2022/02/04 17:49:25;;;;;;;4.03;0.40;;;4.40;99.90;;;;;;5105486;28;20046;-61
2022/02/04 17:52:22;;;;;;;1.70;0.28;;;4.40;99.90;;;;;;5116308;27;20490;-61
2022/02/04 17:55:19;;;;;;;2.05;0.32;;;4.40;99.90;;;;;;5101488;27;20077;-61
2022/02/04 17:58:21;;;;;;;1.50;0.40;;;4.40;99.90;;;;;;5115654;27;20034;-58
2022/02/04 18:07:07;;;;;;;1.35;0.40;;;4.40;99.90;;;;;;5112890;27;20521;-60
2022/02/04 18:09:52;;;;;;;1.02;0.80;;;4.40;99.90;;;;;;5101182;28;20801;-61
2022/02/04 18:12:37;;;;;;;1.52;0.50;;;4.30;99.90;;;;;;5116872;27;20635;-60
2022/02/04 18:15:21;;;;;;;2.90;0.60;;;4.20;99.90;;;;;;5109123;27;20030;-61
2022/02/04 18:18:05;;;;;;;0.47;0.40;;;4.10;99.90;;;;;;5116638;27;20088;-60
2022/02/04 18:20:52;;;;;;;0.80;0.30;;;4.00;99.90;;;;;;5102844;27;20085;-61
2022/02/04 18:23:36;;;;;;;0.30;0.20;;;3.90;99.90;;;;;;5107299;27;20042;-62
2022/02/04 18:26:21;;;;;;;0.80;0.40;;;3.80;99.90;;;;;;5113903;27;20206;-61
2022/02/04 18:29:05;;;;;;;0.25;0.25;;;3.60;99.90;;;;;;5111876;27;20027;-61
2022/02/04 18:31:50;;;;;;;0.75;0.30;;;3.50;99.90;;;;;;5112274;27;20554;-61
2022/02/04 18:34:35;;;;;;;1.63;0.63;;;3.40;99.90;;;;;;5108740;27;20519;-61
2022/02/04 18:37:21;;;;;;;0.40;0.40;;;3.20;99.90;;;;;;5118646;27;20496;-61
2022/02/04 18:40:25;;;;;;;0.40;0.40;;;3.10;99.90;;;;;;5119703;27;20041;-61
2022/02/04 18:43:58;;;;;;;0.40;0.30;;;2.90;99.90;;;;;;5107265;28;20501;-60
2022/02/04 18:49:16;;;;;;;2.17;1.30;;;2.70;99.90;;;;;;5112867;27;20054;-54
2022/02/04 18:52:07;;;;;;;2.28;1.50;;;2.60;99.90;;;;;;5112571;27;20031;-60
2022/02/04 18:55:39;;;;;;;1.50;1.17;;;2.60;99.90;;;;;;5099782;28;20169;-60
2022/02/04 18:58:13;;;;;;;1.50;1.17;;;2.40;99.90;;;;;;5106449;27;20062;-61
2022/02/04 19:00:58;;;;;;;2.05;1.30;;;2.40;99.90;;;;;;5111200;28;20444;-60
2022/02/04 19:03:50;;;;;;;1.50;0.90;;;2.40;99.90;;;;;;5112600;27;20042;-60
2022/02/04 19:06:40;;;;;;;1.92;1.05;;;2.30;99.90;;;;;;5114952;27;20042;-60
2022/02/04 19:09:24;;;;;;;1.27;0.90;;;2.20;99.90;;;;;;5103614;28;20103;-60
2022/02/04 19:12:14;;;;;;;1.38;1.10;;;2.20;99.90;;;;;;5109406;28;20459;-60
2022/02/04 19:15:21;;;;;;;1.58;1.00;;;2.10;99.90;;;;;;5099749;28;20039;-59
2022/02/04 19:18:07;;;;;;;1.95;1.40;;;2.00;99.90;;;;;;5105174;28;20039;-61
2022/02/04 19:21:04;;;;;;;3.10;1.45;;;2.00;99.90;;;;;;5101411;28;20398;-60
2022/02/04 19:23:51;;;;;;;1.73;1.30;;;2.00;99.90;;;;;;5114019;27;20147;-59
2022/02/04 19:26:36;;;;;;;2.03;1.67;;;2.10;99.90;;;;;;5111756;27;20043;-60
2022/02/04 19:29:23;;;;;;;1.77;1.20;;;2.10;99.90;;;;;;5097711;28;20517;-59
2022/02/04 19:32:07;;;;;;;2.60;1.60;;;2.10;99.90;;;;;;5120202;27;20536;-59
2022/02/04 19:34:52;;;;;;;2.67;1.45;;;2.00;99.90;;;;;;5097654;27;20034;-59
2022/02/04 19:37:37;;;;;;;3.28;1.70;;;2.00;99.90;;;;;;5116523;27;20072;-60
2022/02/04 19:40:21;;;;;;;2.15;1.60;;;2.00;99.90;;;;;;5111740;27;20100;-60
2022/02/04 19:43:05;;;;;;;2.83;1.58;;;2.00;99.90;;;;;;5111227;27;20026;-60
2022/02/04 19:45:56;;;;;;;1.98;1.33;;;2.10;99.90;;;;;;5104141;27;20038;-59
2022/02/04 19:48:48;;;;;;;0.95;0.88;;;2.00;99.90;;;;;;5125182;27;20042;-60
2022/02/04 19:54:49;;;;;;;6.93;1.60;;;1.90;99.90;;;;;;5104724;28;20555;-60
2022/02/04 20:07:01;;;;;;;4.53;1.42;;;1.80;99.90;;;;;;5112124;27;20418;-60
2022/02/04 20:14:33;;;;;;;4.20;2.13;;;1.80;99.90;;;;;;5120188;27;20023;-60
2022/02/04 20:16:52;;;;;;;3.10;1.25;;;1.70;99.90;;;;;;5108652;27;20033;-60
2022/02/04 20:25:24;;;;;;;10.73;1.90;;;1.70;99.90;;;;;;5107517;27;20027;-61
2022/02/04 20:28:12;;;;;;;4.45;1.80;;;1.70;99.90;;;;;;5119272;27;20045;-59
2022/02/04 20:30:57;;;;;;;6.07;2.22;;;1.70;99.90;;;;;;5107075;27;20070;-57
2022/02/04 20:33:41;;;;;;;3.58;2.05;;;1.70;99.90;;;;;;5115177;27;20042;-60
2022/02/04 20:36:25;;;;;;;4.18;1.98;;;1.60;99.90;;;;;;5117550;27;20064;-61
2022/02/04 20:39:14;;;;;;;7.65;2.30;;;1.60;99.90;;;;;;5114491;27;20505;-61
2022/02/04 20:41:58;;;;;;;5.20;2.10;;;1.60;99.90;;;;;;5112986;27;20111;-61
2022/02/04 20:44:43;;;;;;;4.60;2.13;;;1.60;99.90;;;;;;5106628;28;20478;-60
2022/02/04 20:47:27;;;;;;;4.00;1.80;;;1.60;99.90;;;;;;5116866;27;20046;-60
2022/02/04 20:50:13;;;;;;;7.55;2.20;;;1.60;99.90;;;;;;5110311;27;20081;-57
2022/02/04 20:52:58;;;;;;;6.75;2.10;;;1.60;99.90;;;;;;5113221;27;20026;-59
2022/02/04 20:55:43;;;;;;;5.03;1.73;;;1.70;99.90;;;;;;5112337;27;20489;-60
2022/02/04 20:58:27;;;;;;;7.13;2.40;;;1.60;99.90;;;;;;5106070;27;20038;-58
2022/02/04 21:01:13;;;;;;;12.57;2.55;;;1.60;99.90;;;;;;5115181;27;20041;-62